Time;durP1;ratioP1;P1;durP2;ratioP2;P2;SDS_P1;SDS_P2;PMS_P1;PMS_P2;Temp;Humidity;BMP_temperature;BMP_pressure;BME280_temperature;BME280_humidity;BME280_pressure;Samples;Min_cycle;Max_cycle;Signal;HPM_P1;HPM_P2
2023/03/14 00:04:06;;;;;;;6.28;2.40;;;;;;;9.92;100.00;98855.19;10445642;28;20068;-73
2023/03/14 00:09:06;;;;;;;7.50;4.10;;;;;;;9.68;100.00;98853.00;10452551;28;20119;-74
2023/03/14 00:14:07;;;;;;;7.10;2.72;;;;;;;9.43;100.00;98849.91;10476442;28;20063;-74
2023/03/14 00:19:08;;;;;;;6.47;2.97;;;;;;;9.29;100.00;98856.59;10445029;28;20045;-74
2023/03/14 00:24:08;;;;;;;10.32;3.85;;;;;;;9.21;100.00;98854.72;10448880;28;20041;-74
2023/03/14 00:29:09;;;;;;;9.40;1.85;;;;;;;9.36;100.00;98871.53;10458802;28;20148;-73
2023/03/14 00:34:09;;;;;;;5.57;1.73;;;;;;;9.32;100.00;98881.00;10442881;28;20048;-73
2023/03/14 00:39:10;;;;;;;8.48;2.03;;;;;;;9.24;100.00;98882.59;10443023;28;20120;-73
2023/03/14 00:44:10;;;;;;;4.18;1.98;;;;;;;9.21;100.00;98895.56;10467767;28;20128;-73
2023/03/14 00:49:11;;;;;;;9.82;2.00;;;;;;;9.15;100.00;98900.66;10444143;28;20392;-73
2023/03/14 00:54:11;;;;;;;8.80;2.72;;;;;;;9.07;100.00;98884.84;10443903;28;20107;-73
2023/03/14 00:59:12;;;;;;;7.55;2.40;;;;;;;8.94;100.00;98889.78;10475055;28;20033;-73
2023/03/14 01:04:12;;;;;;;6.85;2.28;;;;;;;8.88;100.00;98893.97;10475399;28;20062;-73
2023/03/14 01:09:13;;;;;;;9.60;1.67;;;;;;;8.79;100.00;98903.34;10474406;28;20455;-74
2023/03/14 01:14:13;;;;;;;3.80;1.35;;;;;;;8.65;100.00;98891.72;10451394;28;20116;-73
2023/03/14 01:19:14;;;;;;;3.90;1.75;;;;;;;8.60;100.00;98885.50;10464948;28;20060;-73
2023/03/14 01:24:15;;;;;;;6.57;2.47;;;;;;;8.65;100.00;98860.41;10440936;28;20128;-74
2023/03/14 01:29:16;;;;;;;8.70;1.50;;;;;;;8.60;100.00;98864.66;10439888;28;20116;-73
2023/03/14 01:34:16;;;;;;;4.85;1.55;;;;;;;8.55;100.00;98846.31;10444457;28;20045;-73
2023/03/14 01:39:17;;;;;;;5.03;2.60;;;;;;;8.57;100.00;98860.25;10464486;28;20082;-73
2023/03/14 01:44:17;;;;;;;6.28;2.25;;;;;;;8.50;100.00;98843.56;10489027;28;20131;-75
2023/03/14 01:49:26;;;;;;;3.33;1.27;;;;;;;8.52;100.00;98847.09;10490111;28;20131;-72
2023/03/14 01:54:33;;;;;;;8.98;2.13;;;;;;;8.55;100.00;98846.31;10450167;28;20048;-73
2023/03/14 01:59:34;;;;;;;9.73;2.13;;;;;;;8.50;100.00;98848.78;10435907;28;20492;-72
2023/03/14 02:04:34;;;;;;;5.25;2.25;;;;;;;8.50;100.00;98845.31;10505397;28;20062;-73
2023/03/14 02:09:35;;;;;;;5.13;2.33;;;;;;;8.40;100.00;98838.09;10487452;28;20036;-73
2023/03/14 02:14:36;;;;;;;3.57;1.10;;;;;;;8.34;100.00;98831.00;10478707;28;20108;-74
2023/03/14 02:19:49;;;;;;;9.07;2.50;;;;;;;8.36;100.00;98838.00;10465136;28;20119;-73
2023/03/14 02:24:59;;;;;;;8.07;2.53;;;;;;;8.45;100.00;98831.25;10491330;28;20037;-73
2023/03/14 02:30:14;;;;;;;4.88;1.60;;;;;;;8.42;100.00;98836.41;10468202;28;20163;-73
2023/03/14 02:35:21;;;;;;;12.18;3.50;;;;;;;8.52;100.00;98830.59;10479835;28;20037;-73
2023/03/14 02:40:21;;;;;;;7.15;2.15;;;;;;;8.59;100.00;98822.06;10481862;28;20101;-73
2023/03/14 02:45:22;;;;;;;11.57;1.98;;;;;;;8.65;100.00;98824.81;10467173;28;20127;-73
2023/03/14 02:50:24;;;;;;;6.53;2.50;;;;;;;8.65;100.00;98816.09;10430605;28;20044;-73
2023/03/14 02:55:28;;;;;;;10.50;2.08;;;;;;;8.78;100.00;98825.94;10429859;28;20480;-73
2023/03/14 03:00:30;;;;;;;5.20;1.88;;;;;;;8.85;100.00;98818.25;10460227;28;20033;-73
2023/03/14 03:05:30;;;;;;;;;;;;;;;8.92;100.00;98802.78;10489711;28;20036;-73
2023/03/14 03:10:31;;;;;;;6.93;2.78;;;;;;;8.93;100.00;98788.88;10448592;28;19925;-73
2023/03/14 03:15:31;;;;;;;9.90;2.72;;;;;;;8.93;100.00;98774.94;10443957;28;20033;-74
2023/03/14 03:20:32;;;;;;;10.32;2.72;;;;;;;8.89;100.00;98789.69;10463218;28;20072;-73
2023/03/14 03:25:32;;;;;;;9.63;1.98;;;;;;;8.86;100.00;98783.50;10447000;28;20073;-73
2023/03/14 03:30:38;;;;;;;5.35;2.08;;;;;;;8.79;100.00;98804.22;10466353;28;20045;-73
2023/03/14 03:35:45;;;;;;;8.30;3.08;;;;;;;8.66;100.00;98787.47;10448683;28;20103;-73
2023/03/14 03:40:46;;;;;;;6.60;2.30;;;;;;;8.48;100.00;98776.59;10461742;28;20492;-74
2023/03/14 03:45:46;;;;;;;7.55;4.25;;;;;;;8.16;100.00;98806.25;10483076;28;20068;-73
2023/03/14 03:50:47;;;;;;;10.27;2.15;;;;;;;7.76;100.00;98808.75;10478090;28;20029;-72
2023/03/14 03:55:48;;;;;;;2.45;1.23;;;;;;;7.50;100.00;98802.84;10490817;28;20032;-72
2023/03/14 04:00:48;;;;;;;8.55;1.58;;;;;;;7.28;100.00;98817.00;10486318;28;20055;-72
2023/03/14 04:06:07;;;;;;;4.95;0.85;;;;;;;7.06;100.00;98829.41;10481751;28;20090;-72
2023/03/14 04:11:07;;;;;;;5.57;1.95;;;;;;;7.01;100.00;98837.06;10449629;28;20046;-72
2023/03/14 04:16:14;;;;;;;1.98;0.93;;;;;;;6.97;100.00;98822.19;10481787;28;20036;-72
2023/03/14 04:21:15;;;;;;;9.02;2.53;;;;;;;6.89;100.00;98823.69;10470683;28;20120;-72
2023/03/14 04:26:15;;;;;;;4.65;1.13;;;;;;;6.98;100.00;98816.16;10473792;28;20053;-72
2023/03/14 04:31:18;;;;;;;8.15;1.85;;;;;;;6.95;100.00;98815.19;10483103;28;20047;-72
2023/03/14 04:36:19;;;;;;;2.08;1.00;;;;;;;6.95;100.00;98812.59;10444019;28;20037;-72
2023/03/14 04:41:19;;;;;;;7.47;1.88;;;;;;;6.93;100.00;98816.88;10445663;28;20033;-72
2023/03/14 04:46:19;;;;;;;3.03;1.35;;;;;;;6.93;100.00;98804.72;10446178;28;20068;-72
2023/03/14 04:51:23;;;;;;;8.35;1.33;;;;;;;6.92;100.00;98800.38;10458111;28;20067;-72
2023/03/14 04:56:23;;;;;;;3.13;1.75;;;;;;;6.99;100.00;98781.50;10444823;28;20052;-72
2023/03/14 05:01:24;;;;;;;7.95;1.90;;;;;;;7.06;100.00;98769.56;10471063;28;20117;-72
2023/03/14 05:06:24;;;;;;;10.10;3.15;;;;;;;7.14;100.00;98772.38;10446265;28;20086;-72
2023/03/14 05:11:25;;;;;;;7.63;2.83;;;;;;;7.18;100.00;98771.63;10441042;28;20036;-72
2023/03/14 05:16:25;;;;;;;23.75;4.95;;;;;;;7.30;100.00;98758.06;10452906;28;20028;-72
2023/03/14 05:21:26;;;;;;;11.27;4.15;;;;;;;7.40;100.00;98753.97;10483370;28;20056;-72
2023/03/14 05:26:26;;;;;;;6.15;2.70;;;;;;;7.42;100.00;98745.38;10445492;28;20129;-73
2023/03/14 05:31:27;;;;;;;6.85;3.20;;;;;;;7.48;100.00;98749.84;10442041;28;20037;-72
2023/03/14 05:36:27;;;;;;;12.13;3.28;;;;;;;7.43;100.00;98746.25;10460793;28;20079;-73
2023/03/14 05:41:29;;;;;;;5.60;2.22;;;;;;;7.43;100.00;98741.03;10483956;28;20458;-73
2023/03/14 05:46:30;;;;;;;15.97;4.70;;;;;;;7.47;100.00;98749.00;10440375;28;20489;-72
2023/03/14 05:51:31;;;;;;;4.97;2.33;;;;;;;7.45;100.00;98741.97;10440391;28;20044;-72
2023/03/14 05:56:32;;;;;;;4.45;2.03;;;;;;;7.49;100.00;98743.81;10442668;28;20129;-72
2023/03/14 06:01:32;;;;;;;5.65;2.58;;;;;;;7.53;100.00;98742.19;10434967;28;20037;-72
2023/03/14 06:06:33;;;;;;;3.15;1.48;;;;;;;7.59;100.00;98732.78;10480104;28;20065;-72
2023/03/14 06:11:36;;;;;;;4.40;1.48;;;;;;;7.57;100.00;98728.41;10479154;28;20117;-72
2023/03/14 06:16:36;;;;;;;2.17;1.10;;;;;;;7.64;100.00;98718.16;10439978;28;20051;-72
2023/03/14 06:21:37;;;;;;;5.88;2.70;;;;;;;7.64;100.00;98733.78;10440046;28;20071;-73
2023/03/14 06:26:37;;;;;;;3.58;1.63;;;;;;;7.63;100.00;98734.63;10461729;28;20109;-73
2023/03/14 06:31:38;;;;;;;4.05;2.10;;;;;;;7.66;100.00;98733.84;10480123;28;20136;-72
2023/03/14 06:36:38;;;;;;;2.92;1.17;;;;;;;7.67;100.00;98725.19;10456630;28;20140;-72
2023/03/14 06:41:39;;;;;;;3.35;1.33;;;;;;;7.71;100.00;98733.94;10460739;28;20053;-72
2023/03/14 06:46:39;;;;;;;3.25;1.30;;;;;;;7.77;100.00;98728.88;10475844;28;20069;-72
2023/03/14 06:51:40;;;;;;;3.63;1.35;;;;;;;7.79;100.00;98725.50;10479887;28;20444;-72
2023/03/14 06:56:41;;;;;;;1.85;1.13;;;;;;;7.86;100.00;98731.72;10448039;28;20128;-72
2023/03/14 07:01:41;;;;;;;3.95;2.00;;;;;;;7.84;100.00;98746.44;10479874;28;20112;-72
2023/03/14 07:06:44;;;;;;;5.65;2.50;;;;;;;7.92;100.00;98742.28;10477277;28;20033;-72
2023/03/14 07:11:44;;;;;;;2.90;1.55;;;;;;;8.08;100.00;98756.56;10510861;28;20036;-72
2023/03/14 07:16:45;;;;;;;4.55;1.52;;;;;;;8.23;100.00;98748.22;10464501;28;20064;-72
2023/03/14 07:21:45;;;;;;;3.63;1.77;;;;;;;8.29;100.00;98757.03;10445121;28;20041;-73
2023/03/14 07:26:46;;;;;;;4.00;1.73;;;;;;;8.41;100.00;98759.91;10447778;28;20120;-72
2023/03/14 07:31:46;;;;;;;3.55;1.33;;;;;;;8.47;100.00;98760.03;10462844;28;20175;-72
2023/03/14 07:36:47;;;;;;;4.65;1.98;;;;;;;8.60;100.00;98760.34;10461708;28;20041;-72
2023/03/14 07:41:47;;;;;;;3.63;1.95;;;;;;;8.56;100.00;98779.38;10461320;28;20040;-72
2023/03/14 07:46:47;;;;;;;4.10;2.20;;;;;;;8.47;100.00;98785.25;10462225;28;20508;-73
2023/03/14 07:51:48;;;;;;;8.75;2.47;;;;;;;8.44;100.00;98799.06;10446182;28;20056;-73
2023/03/14 07:56:49;;;;;;;6.43;2.88;;;;;;;8.37;100.00;98802.38;10447291;28;20053;-72
2023/03/14 08:01:49;;;;;;;5.20;2.10;;;;;;;8.36;100.00;98814.56;10460549;28;20063;-72
2023/03/14 08:06:50;;;;;;;4.95;2.65;;;;;;;8.22;100.00;98818.56;10444758;28;20560;-75
2023/03/14 08:11:50;;;;;;;3.15;1.92;;;;;;;8.14;100.00;98831.38;10446894;28;20128;-74
2023/03/14 08:16:51;;;;;;;4.00;2.22;;;;;;;8.13;100.00;98839.19;10454613;28;20401;-76
2023/03/14 08:21:51;;;;;;;5.53;2.22;;;;;;;8.02;100.00;98885.78;10443709;28;20037;-76
2023/03/14 08:26:52;;;;;;;3.67;1.52;;;;;;;7.70;100.00;98928.38;10421326;28;20091;-75
2023/03/14 08:31:53;;;;;;;6.18;1.70;;;;;;;7.18;100.00;98938.13;10433129;28;20073;-75
2023/03/14 08:36:56;;;;;;;0.68;0.50;;;;;;;6.76;100.00;98955.06;10464628;28;20051;-77
2023/03/14 08:41:57;;;;;;;1.80;1.33;;;;;;;6.71;100.00;98978.28;10444647;28;20071;-75
2023/03/14 08:46:57;;;;;;;2.08;1.35;;;;;;;6.56;100.00;98988.19;10441213;28;20081;-75
2023/03/14 08:51:58;;;;;;;4.22;2.65;;;;;;;6.47;100.00;99005.22;10435322;28;20508;-75
2023/03/14 08:56:59;;;;;;;3.85;3.03;;;;;;;6.68;100.00;99032.78;10419619;28;20059;-75
2023/03/14 09:02:03;;;;;;;4.65;2.75;;;;;;;6.58;100.00;99057.59;10393633;28;20132;-76
2023/03/14 09:07:03;;;;;;;6.13;3.17;;;;;;;6.58;100.00;99057.59;10448378;28;20048;-75
2023/03/14 09:12:04;;;;;;;5.70;4.03;;;;;;;6.71;100.00;99095.28;10440258;28;20048;-74
2023/03/14 09:17:05;;;;;;;8.23;4.70;;;;;;;6.96;100.00;99097.84;10441778;28;20048;-75
2023/03/14 09:22:05;;;;;;;7.00;3.92;;;;;;;6.79;100.00;99125.88;10434201;28;20110;-75
2023/03/14 09:27:07;;;;;;;8.27;4.55;;;;;;;6.52;100.00;99147.47;10461539;28;20059;-75
2023/03/14 09:32:08;;;;;;;4.67;2.87;;;;;;;6.24;100.00;99185.41;10430625;28;20060;-75
2023/03/14 09:37:08;;;;;;;4.90;1.55;;;;;;;6.21;100.00;99208.69;10447899;28;20072;-76
2023/03/14 09:42:25;;;;;;;9.88;2.03;;;;;;;6.30;100.00;99219.41;10409332;28;20124;-75
2023/03/14 09:47:26;;;;;;;4.70;2.60;;;;;;;6.46;100.00;99232.16;10460115;28;20134;-75
2023/03/14 09:52:35;;;;;;;3.58;1.50;;;;;;;6.82;100.00;99245.59;10392609;28;20124;-77
2023/03/14 09:57:35;;;;;;;2.03;1.38;;;;;;;6.58;100.00;99255.16;10452227;28;20087;-74
2023/03/14 10:02:36;;;;;;;10.02;2.70;;;;;;;6.68;100.00;99278.91;10449661;28;20641;-74
2023/03/14 10:07:38;;;;;;;3.45;1.63;;;;;;;7.38;100.00;99297.00;10414811;28;20041;-74
2023/03/14 10:12:41;;;;;;;3.35;2.05;;;;;;;8.28;100.00;99297.38;10377501;28;20397;-77
2023/03/14 10:17:47;;;;;;;2.00;1.23;;;;;;;8.94;100.00;99302.03;10380017;28;20038;-76
2023/03/14 10:22:47;;;;;;;3.38;1.58;;;;;;;8.45;100.00;99317.06;10447168;28;20041;-76
2023/03/14 10:27:48;;;;;;;2.70;1.80;;;;;;;7.66;100.00;99342.25;10436614;28;20037;-76
2023/03/14 10:32:48;;;;;;;2.70;0.98;;;;;;;6.54;100.00;99392.72;10452586;28;20065;-75
2023/03/14 10:37:57;;;;;;;5.18;0.77;;;;;;;5.77;100.00;99435.41;10476615;28;20434;-77
2023/03/14 10:42:58;;;;;;;1.42;0.40;;;;;;;5.57;100.00;99452.72;10400438;28;20458;-76
2023/03/14 10:48:14;;;;;;;2.80;0.60;;;;;;;5.76;100.00;99484.69;10457363;28;20445;-77
2023/03/14 10:53:16;;;;;;;7.88;1.60;;;;;;;6.10;100.00;99522.59;10439035;28;20064;-76
2023/03/14 10:58:27;;;;;;;1.08;0.63;;;;;;;5.97;100.00;99532.41;10427549;28;20120;-76
2023/03/14 11:03:28;;;;;;;3.00;1.10;;;;;;;6.17;100.00;99548.88;10397703;28;20049;-77
2023/03/14 11:08:37;;;;;;;1.27;1.10;;;;;;;7.19;100.00;99552.28;10460709;28;20036;-76
2023/03/14 11:13:56;;;;;;;0.90;0.77;;;;;;;7.02;100.00;99566.31;10429686;28;20037;-77
2023/03/14 11:19:03;;;;;;;2.53;1.08;;;;;;;6.81;100.00;99587.09;10414159;28;20542;-75
2023/03/14 11:24:19;;;;;;;2.83;1.15;;;;;;;7.34;100.00;99605.78;10425374;28;20124;-75
2023/03/14 11:29:22;;;;;;;13.38;3.17;;;;;;;7.19;100.00;99626.84;10430269;28;20038;-78
2023/03/14 11:34:33;;;;;;;10.80;2.45;;;;;;;10.25;100.00;99624.47;10438216;28;20515;-78
2023/03/14 11:39:41;;;;;;;11.57;1.98;;;;;;;12.03;100.00;99625.50;10454179;28;20045;-78
2023/03/14 11:44:42;;;;;;;5.18;2.67;;;;;;;11.05;100.00;99640.63;10425131;28;20504;-79
2023/03/14 11:50:20;;;;;;;6.57;2.07;;;;;;;10.71;100.00;99669.38;10433779;28;20037;-77
2023/03/14 11:55:39;;;;;;;6.45;2.20;;;;;;;9.05;100.00;99695.56;10457823;28;20116;-77
2023/03/14 12:00:39;;;;;;;5.90;1.98;;;;;;;8.52;100.00;99706.72;10460940;28;20037;-76
2023/03/14 12:06:01;;;;;;;9.55;3.25;;;;;;;9.11;100.00;99716.66;10458975;28;20556;-76
2023/03/14 12:11:28;;;;;;;7.15;2.67;;;;;;;9.71;100.00;99730.84;10448995;28;20466;-76
2023/03/14 12:16:34;;;;;;;7.28;3.28;;;;;;;9.72;100.00;99739.56;10485564;28;20029;-76
2023/03/14 12:22:00;;;;;;;15.02;2.85;;;;;;;8.38;100.00;99776.56;10442477;28;20040;-75
2023/03/14 12:27:02;;;;;;;12.00;2.63;;;;;;;6.79;100.00;99807.19;10455440;28;20128;-77
2023/03/14 12:32:23;;;;;;;6.47;1.52;;;;;;;5.95;100.00;99822.31;10441591;28;20810;-77
2023/03/14 12:37:41;;;;;;;12.98;2.88;;;;;;;5.75;100.00;99847.28;10440502;28;20041;-78
2023/03/14 12:42:58;;;;;;;5.78;3.22;;;;;;;5.52;100.00;99859.09;10407287;28;20139;-78
2023/03/14 12:48:18;;;;;;;9.13;1.95;;;;;;;5.45;100.00;99868.25;10433812;28;20667;-78
2023/03/14 12:53:38;;;;;;;13.73;2.88;;;;;;;5.51;100.00;99876.34;10436968;28;20033;-78
2023/03/14 12:59:16;;;;;;;8.80;1.77;;;;;;;7.08;100.00;99883.09;10449760;28;20112;-79
2023/03/14 13:04:17;;;;;;;20.20;2.65;;;;;;;8.16;100.00;99919.06;10452767;28;20043;-78
2023/03/14 13:09:32;;;;;;;20.33;3.17;;;;;;;6.59;100.00;99929.38;10464527;28;20509;-78
2023/03/14 13:14:32;;;;;;;5.53;1.95;;;;;;;7.11;100.00;99937.88;10436451;28;20045;-77
2023/03/14 13:19:33;;;;;;;11.20;1.45;;;;;;;8.08;100.00;99920.44;10437973;28;20132;-77
2023/03/14 13:24:34;;;;;;;1.52;1.05;;;;;;;11.57;100.00;99914.44;10461134;28;20483;-76
2023/03/14 13:29:34;;;;;;;12.38;2.40;;;;;;;12.77;100.00;99907.94;10460434;28;20039;-76
2023/03/14 13:34:35;;;;;;;10.20;1.65;;;;;;;13.73;100.00;99919.59;10446308;28;20400;-77
2023/03/14 13:39:35;;;;;;;6.60;2.15;;;;;;;13.42;100.00;99926.00;10462069;28;20562;-78
2023/03/14 13:44:37;;;;;;;8.73;2.20;;;;;;;13.18;100.00;99935.09;10442871;28;20041;-76
2023/03/14 13:49:38;;;;;;;14.45;3.40;;;;;;;10.57;100.00;99939.34;10478308;28;20518;-76
2023/03/14 13:54:38;;;;;;;12.75;2.67;;;;;;;8.91;100.00;99956.00;10462924;28;20060;-76
2023/03/14 13:59:38;;;;;;;11.48;3.63;;;;;;;8.07;100.00;99969.09;10469852;28;20488;-77
2023/03/14 14:04:39;;;;;;;10.90;4.05;;;;;;;8.12;100.00;99981.44;10444661;28;20120;-76
2023/03/14 14:09:43;;;;;;;15.95;3.25;;;;;;;7.76;100.00;100006.81;10472534;28;20036;-76
2023/03/14 14:15:04;;;;;;;10.10;2.50;;;;;;;7.66;100.00;100020.25;10452291;28;20032;-74
2023/03/14 14:20:07;;;;;;;12.63;3.00;;;;;;;7.56;100.00;100039.75;10442574;28;20550;-74
2023/03/14 14:25:15;;;;;;;16.45;4.25;;;;;;;7.90;100.00;100063.88;10438559;28;20048;-75
2023/03/14 14:30:18;;;;;;;9.95;3.38;;;;;;;8.82;100.00;100068.75;10443139;28;20040;-75
2023/03/14 14:35:32;;;;;;;8.60;2.10;;;;;;;9.44;90.49;100086.91;10431092;28;20061;-75
2023/03/14 14:40:33;;;;;;;8.73;2.40;;;;;;;9.62;74.54;100098.91;10417801;28;20040;-79
2023/03/14 14:45:34;;;;;;;6.75;2.50;;;;;;;10.25;75.17;100106.50;10518561;28;20082;-78
2023/03/14 14:50:37;;;;;;;12.65;2.60;;;;;;;10.28;67.19;100124.06;10455377;28;20184;-75
2023/03/14 14:55:41;;;;;;;8.38;2.28;;;;;;;8.84;72.35;100149.69;10458039;28;20158;-74
2023/03/14 15:01:12;;;;;;;10.07;2.22;;;;;;;7.99;78.36;100159.78;10466615;28;20036;-75
2023/03/14 15:06:13;;;;;;;7.20;2.10;;;;;;;7.37;76.97;100176.00;10457368;28;20044;-75
2023/03/14 15:11:18;;;;;;;7.80;2.92;;;;;;;7.03;79.75;100188.19;10418994;28;20043;-76
2023/03/14 15:16:21;;;;;;;6.05;2.03;;;;;;;6.83;83.02;100208.00;10484334;28;20377;-76
2023/03/14 15:21:22;;;;;;;11.30;2.03;;;;;;;6.84;83.92;100214.97;10444575;27;20072;-75
2023/03/14 15:26:26;;;;;;;5.00;1.70;;;;;;;6.76;82.92;100232.75;10446152;28;20037;-76
2023/03/14 15:31:27;;;;;;;13.20;3.22;;;;;;;6.78;89.58;100242.34;10446676;28;20282;-74
2023/03/14 15:36:30;;;;;;;6.03;2.42;;;;;;;6.70;88.47;100254.97;10466648;28;20037;-77
2023/03/14 15:41:31;;;;;;;11.45;3.97;;;;;;;6.60;92.28;100284.78;10467633;28;20040;-78
2023/03/14 15:46:31;;;;;;;8.10;1.88;;;;;;;6.41;89.11;100282.88;10444805;28;20033;-77
2023/03/14 15:51:32;;;;;;;9.25;2.88;;;;;;;6.16;89.28;100295.41;10444676;28;20041;-77
2023/03/14 15:56:32;;;;;;;11.27;2.97;;;;;;;5.82;90.06;100313.34;10446113;28;20029;-77
2023/03/14 16:01:33;;;;;;;8.73;5.07;;;;;;;5.66;89.37;100332.31;10452882;28;20178;-77
2023/03/14 16:06:35;;;;;;;10.50;3.20;;;;;;;5.52;93.17;100340.19;10420010;28;20127;-77
2023/03/14 16:11:35;;;;;;;14.98;1.90;;;;;;;5.48;96.88;100351.19;10415723;28;20041;-78
2023/03/14 16:16:36;;;;;;;9.00;2.47;;;;;;;5.34;93.90;100354.66;10448849;28;20524;-77
2023/03/14 16:21:37;;;;;;;6.25;1.73;;;;;;;5.17;92.01;100364.00;10444694;28;20144;-77
2023/03/14 16:26:38;;;;;;;10.23;1.80;;;;;;;4.96;94.14;100386.09;10469854;28;20037;-77
2023/03/14 16:31:41;;;;;;;11.77;2.47;;;;;;;4.94;99.65;100392.91;10481239;28;20528;-77
2023/03/14 16:36:42;;;;;;;5.05;1.88;;;;;;;4.81;96.38;100406.81;10467301;28;20041;-77
2023/03/14 16:41:43;;;;;;;12.80;2.58;;;;;;;4.70;95.06;100424.25;10444008;28;20064;-77
2023/03/14 16:46:43;;;;;;;10.07;2.42;;;;;;;4.56;99.61;100432.84;10445674;28;20036;-77
2023/03/14 16:51:44;;;;;;;13.15;2.65;;;;;;;4.40;96.84;100449.09;10456922;28;20128;-76
2023/03/14 16:56:46;;;;;;;5.82;1.90;;;;;;;4.31;98.55;100464.91;10467955;28;20120;-76
2023/03/14 17:01:48;;;;;;;7.93;2.28;;;;;;;4.19;100.00;100487.41;10479500;28;20048;-77
2023/03/14 17:06:49;;;;;;;12.40;2.58;;;;;;;4.13;100.00;100493.09;10403736;28;20041;-77
2023/03/14 17:11:49;;;;;;;6.32;2.65;;;;;;;4.04;100.00;100511.47;10423656;28;20879;-77
2023/03/14 17:16:50;;;;;;;6.75;1.83;;;;;;;3.94;100.00;100509.06;10442096;28;20472;-77
2023/03/14 17:21:50;;;;;;;9.82;2.70;;;;;;;3.81;100.00;100526.34;10442430;28;20111;-77
2023/03/14 17:26:51;;;;;;;11.13;2.38;;;;;;;3.78;100.00;100541.66;10438714;28;20522;-77
2023/03/14 17:31:51;;;;;;;14.15;3.65;;;;;;;3.68;100.00;100549.56;10441165;28;20433;-76
2023/03/14 17:36:52;;;;;;;9.77;1.83;;;;;;;3.62;100.00;100569.84;10440375;28;20123;-77
2023/03/14 17:41:52;;;;;;;8.23;3.55;;;;;;;3.56;100.00;100579.75;10477559;28;20065;-77
2023/03/14 17:46:54;;;;;;;12.25;2.80;;;;;;;3.47;100.00;100600.72;10442016;28;20171;-78
2023/03/14 17:51:55;;;;;;;11.35;3.15;;;;;;;3.47;100.00;100613.66;10440797;28;20076;-78
2023/03/14 17:56:55;;;;;;;10.95;3.70;;;;;;;3.30;100.00;100631.44;10441479;28;20116;-77
2023/03/14 18:01:56;;;;;;;8.55;3.33;;;;;;;3.19;100.00;100647.88;10441492;28;20048;-78
2023/03/14 18:06:56;;;;;;;5.63;2.67;;;;;;;3.08;100.00;100655.72;10441935;28;20029;-77
2023/03/14 18:11:57;;;;;;;8.20;3.28;;;;;;;3.00;100.00;100664.59;10440918;28;20060;-77
2023/03/14 18:16:57;;;;;;;10.52;3.55;;;;;;;2.91;100.00;100672.56;10475829;28;20124;-78
2023/03/14 18:21:58;;;;;;;6.97;2.63;;;;;;;2.90;100.00;100681.09;10441374;28;20072;-78
2023/03/14 18:26:58;;;;;;;16.05;3.25;;;;;;;2.89;100.00;100693.91;10465925;28;20036;-77
2023/03/14 18:31:59;;;;;;;8.60;4.03;;;;;;;2.76;100.00;100698.16;10490106;28;20094;-78
2023/03/14 18:37:00;;;;;;;6.22;2.13;;;;;;;2.59;100.00;100706.31;10486454;28;20048;-77
2023/03/14 18:42:00;;;;;;;7.13;2.35;;;;;;;2.46;100.00;100712.19;10490081;28;20484;-78
2023/03/14 18:47:01;;;;;;;6.72;3.13;;;;;;;2.32;100.00;100713.72;10464754;28;20154;-77
2023/03/14 18:52:01;;;;;;;13.27;3.63;;;;;;;2.15;100.00;100735.59;10455947;28;20052;-77
2023/03/14 18:57:02;;;;;;;13.07;3.28;;;;;;;2.01;100.00;100748.31;10466786;27;20067;-77
2023/03/14 19:02:02;;;;;;;4.85;2.10;;;;;;;1.80;100.00;100750.09;10445617;28;20057;-75
2023/03/14 19:07:03;;;;;;;7.30;2.03;;;;;;;1.66;100.00;100759.28;10444628;28;20136;-77
2023/03/14 19:12:03;;;;;;;10.70;2.65;;;;;;;1.47;100.00;100762.03;10474421;28;20120;-77
2023/03/14 19:17:04;;;;;;;15.20;4.10;;;;;;;1.28;100.00;100777.66;10452958;28;20086;-77
2023/03/14 19:22:04;;;;;;;8.75;2.97;;;;;;;0.96;100.00;100781.94;10432967;28;20047;-77
2023/03/14 19:27:05;;;;;;;9.50;2.88;;;;;;;0.75;100.00;100795.56;10421310;28;20148;-77
2023/03/14 19:32:05;;;;;;;6.88;3.15;;;;;;;0.64;100.00;100808.41;10454308;28;20105;-76
2023/03/14 19:37:06;;;;;;;13.00;2.85;;;;;;;0.40;100.00;100809.75;10486532;28;20045;-76
2023/03/14 19:42:06;;;;;;;7.03;2.95;;;;;;;0.19;100.00;100821.66;10461129;28;20036;-76
2023/03/14 19:47:07;;;;;;;7.53;2.92;;;;;;;0.02;100.00;100825.28;10488732;28;20171;-75
2023/03/14 19:52:07;;;;;;;15.05;4.38;;;;;;;-0.06;100.00;100827.19;10403294;28;20041;-76
2023/03/14 19:57:08;;;;;;;9.35;2.90;;;;;;;-0.19;100.00;100835.47;10403203;28;20405;-76
2023/03/14 20:02:14;;;;;;;11.25;2.70;;;;;;;-0.40;100.00;100837.00;10405131;28;20477;-76
2023/03/14 20:07:15;;;;;;;14.63;3.70;;;;;;;-0.34;100.00;100845.28;10455145;28;20040;-76
2023/03/14 20:12:15;;;;;;;10.02;3.80;;;;;;;-0.42;100.00;100846.25;10445635;28;20068;-76
2023/03/14 20:17:16;;;;;;;7.25;2.80;;;;;;;-0.43;100.00;100854.72;10444388;28;20128;-76
2023/03/14 20:22:16;;;;;;;15.95;4.65;;;;;;;-0.44;100.00;100853.81;10446173;28;20049;-75
2023/03/14 20:27:17;;;;;;;9.95;3.17;;;;;;;-0.54;100.00;100864.03;10412766;28;20044;-76
2023/03/14 20:32:19;;;;;;;10.55;2.65;;;;;;;-0.45;100.00;100864.88;10403469;28;20076;-76
2023/03/14 20:37:21;;;;;;;11.38;2.40;;;;;;;-0.45;100.00;100867.44;10423583;28;20064;-76
2023/03/14 20:42:22;;;;;;;5.55;2.00;;;;;;;-0.56;100.00;100868.13;10427404;28;20029;-76
2023/03/14 20:47:23;;;;;;;9.55;2.40;;;;;;;-0.61;100.00;100875.41;10465762;28;20481;-76
2023/03/14 20:52:23;;;;;;;18.83;4.75;;;;;;;-0.66;100.00;100889.53;10467153;28;20124;-76
2023/03/14 20:57:24;;;;;;;11.98;2.70;;;;;;;-0.89;100.00;100894.31;10400345;28;20034;-76
2023/03/14 21:02:24;;;;;;;15.17;3.50;;;;;;;-0.97;100.00;100913.22;10403346;28;20701;-76
2023/03/14 21:07:25;;;;;;;10.57;2.60;;;;;;;-0.97;100.00;100913.22;10401638;28;20129;-76
2023/03/14 21:12:25;;;;;;;8.23;3.37;;;;;;;-0.68;100.00;100907.34;10421949;28;20595;-75
2023/03/14 21:17:26;;;;;;;11.85;4.03;;;;;;;-0.45;100.00;100911.16;10470298;28;20064;-76
2023/03/14 21:22:28;;;;;;;9.88;2.53;;;;;;;-0.46;100.00;100907.69;10456966;28;20097;-75
2023/03/14 21:27:31;;;;;;;;;;;;;;;-0.69;100.00;100908.13;10460622;28;20098;-75
2023/03/14 21:32:31;;;;;;;11.40;4.60;;;;;;;-0.58;100.00;100911.69;10424208;28;20034;-75
2023/03/14 21:37:32;;;;;;;5.13;3.58;;;;;;;-0.55;100.00;100918.78;10420005;28;20078;-75
2023/03/14 21:42:33;;;;;;;10.90;4.10;;;;;;;-0.51;100.00;100923.44;10426267;28;20493;-75
2023/03/14 21:47:33;;;;;;;30.48;7.28;;;;;;;-0.53;100.00;100922.41;10455739;28;20041;-75
2023/03/14 21:52:34;;;;;;;13.93;6.00;;;;;;;-0.43;100.00;100927.63;10424608;28;20519;-75
2023/03/14 21:57:34;;;;;;;12.83;4.70;;;;;;;-0.09;100.00;100922.13;10442048;28;20473;-75
2023/03/14 22:02:35;;;;;;;9.70;4.40;;;;;;;0.11;100.00;100929.97;10456971;28;20076;-75
2023/03/14 22:07:35;;;;;;;12.95;5.50;;;;;;;0.21;100.00;100931.69;10415531;28;20495;-75
2023/03/14 22:12:36;;;;;;;12.75;4.45;;;;;;;0.29;100.00;100919.53;10459092;28;20120;-76
2023/03/14 22:17:36;;;;;;;11.05;4.85;;;;;;;0.31;100.00;100929.94;10464216;28;20041;-76
2023/03/14 22:22:37;;;;;;;10.13;3.50;;;;;;;0.28;100.00;100928.03;10480121;28;20146;-76
2023/03/14 22:27:37;;;;;;;9.93;4.38;;;;;;;0.46;100.00;100944.19;10478923;28;20441;-75
2023/03/14 22:32:38;;;;;;;16.63;6.13;;;;;;;0.46;100.00;100939.03;10453112;28;20119;-76
2023/03/14 22:37:38;;;;;;;15.75;5.38;;;;;;;0.67;100.00;100924.59;10467318;28;20043;-76
2023/03/14 22:42:39;;;;;;;9.65;4.90;;;;;;;0.77;100.00;100938.31;10459371;28;20503;-75
2023/03/14 22:47:39;;;;;;;16.17;4.80;;;;;;;0.89;100.00;100947.09;10414934;28;20069;-76
2023/03/14 22:52:41;;;;;;;15.63;5.10;;;;;;;0.97;100.00;100948.69;10448335;28;20060;-76
2023/03/14 22:57:42;;;;;;;21.52;6.82;;;;;;;1.00;100.00;100958.34;10459252;28;20146;-76
2023/03/14 23:02:42;;;;;;;14.65;6.13;;;;;;;0.98;100.00;100962.47;10461833;28;20063;-76
2023/03/14 23:07:42;;;;;;;15.55;5.40;;;;;;;1.06;100.00;100961.44;10441541;28;20123;-76
2023/03/14 23:12:46;;;;;;;15.45;5.90;;;;;;;1.12;100.00;100977.47;10457247;28;20475;-76
2023/03/14 23:17:46;;;;;;;17.40;7.20;;;;;;;1.20;100.00;100987.53;10444738;28;20037;-76